Time;durP1;ratioP1;P1;durP2;ratioP2;P2;SDS_P1;SDS_P2;PMS_P1;PMS_P2;Temp;Humidity;BMP_temperature;BMP_pressure;BME280_temperature;BME280_humidity;BME280_pressure;Samples;Min_cycle;Max_cycle;Signal;HPM_P1;HPM_P2
2022/11/18 00:01:49;;;;;;;7.90;3.13;;;;;;;;;;5057555;28;20207;-80
2022/11/18 00:20:18;;;;;;;10.20;3.50;;;;;;;;;;5075222;28;20162;-76
2022/11/18 00:22:45;;;;;;;8.70;3.73;;;;;;;;;;5040647;28;20211;-86
2022/11/18 00:25:11;;;;;;;7.83;3.20;;;;;;;;;;5075243;28;20175;-76
2022/11/18 00:27:37;;;;;;;7.93;3.37;;;;;;;;;;5057074;28;20244;-78
2022/11/18 00:30:04;;;;;;;6.67;3.20;;;;;;;;;;5074816;28;20186;-78
2022/11/18 00:32:30;;;;;;;7.97;3.40;;;;;;;;;;5057374;28;20186;-79
2022/11/18 00:34:56;;;;;;;6.70;3.20;;;;;;;;;;5040858;28;20184;-80
2022/11/18 00:37:22;;;;;;;6.57;3.17;;;;;;;;;;5075001;28;20213;-80
2022/11/18 00:39:48;;;;;;;8.17;3.60;;;;;;;;;;5057221;28;20247;-80
2022/11/18 00:44:59;;;;;;;8.47;3.90;;;;;;;;;;5074956;28;20198;-86
2022/11/18 01:10:04;;;;;;;7.20;3.23;;;;;;;;;;5074465;28;20162;-78
2022/11/18 01:15:15;;;;;;;6.60;3.53;;;;;;;;;;5074683;28;20292;-79
2022/11/18 01:17:41;;;;;;;7.97;3.40;;;;;;;;;;5040004;28;20220;-80
2022/11/18 01:20:08;;;;;;;11.70;3.53;;;;;;;;;;5039807;28;20268;-80
2022/11/18 01:22:34;;;;;;;6.63;3.43;;;;;;;;;;5056882;28;20214;-77
2022/11/18 01:25:00;;;;;;;8.97;3.30;;;;;;;;;;5055863;28;20195;-76
2022/11/18 01:27:26;;;;;;;6.93;3.67;;;;;;;;;;5054763;28;20175;-76
2022/11/18 01:37:32;;;;;;;8.17;3.63;;;;;;;;;;5056098;28;20195;-80
2022/11/18 01:39:58;;;;;;;5.77;3.70;;;;;;;;;;5056264;28;20282;-80
2022/11/18 01:42:24;;;;;;;8.93;4.00;;;;;;;;;;5074104;28;20277;-80
2022/11/18 01:45:00;;;;;;;7.43;3.57;;;;;;;;;;5056355;28;20171;-80
2022/11/18 01:47:28;;;;;;;8.20;3.97;;;;;;;;;;5073927;28;20171;-78
2022/11/18 01:49:54;;;;;;;8.67;3.90;;;;;;;;;;5073733;28;20178;-80
2022/11/18 01:52:21;;;;;;;8.07;3.70;;;;;;;;;;5074053;28;20218;-80
2022/11/18 01:54:51;;;;;;;8.67;3.70;;;;;;;;;;5061253;28;20191;-80
2022/11/18 01:57:18;;;;;;;6.10;3.47;;;;;;;;;;5056043;28;20179;-86
2022/11/18 01:59:45;;;;;;;8.27;3.63;;;;;;;;;;5056092;28;20198;-87
2022/11/18 02:02:13;;;;;;;8.97;3.53;;;;;;;;;;5055894;28;20237;-87
2022/11/18 02:04:40;;;;;;;10.57;3.73;;;;;;;;;;5056037;28;20176;-77
2022/11/18 02:07:08;;;;;;;6.80;3.80;;;;;;;;;;5055844;28;20295;-76
2022/11/18 02:09:34;;;;;;;7.93;3.40;;;;;;;;;;5056233;28;20316;-77
2022/11/18 02:12:00;;;;;;;5.77;3.80;;;;;;;;;;5056225;28;20183;-77
2022/11/18 02:14:28;;;;;;;8.00;4.03;;;;;;;;;;5038998;28;20257;-76
2022/11/18 02:16:57;;;;;;;6.50;3.33;;;;;;;;;;5055880;28;20196;-77
2022/11/18 02:19:26;;;;;;;6.73;3.40;;;;;;;;;;5055167;28;20188;-77
2022/11/18 02:21:58;;;;;;;8.87;3.57;;;;;;;;;;5055510;28;20206;-76
2022/11/18 02:24:43;;;;;;;8.23;3.73;;;;;;;;;;5055760;28;20180;-76
2022/11/18 02:27:09;;;;;;;6.67;3.40;;;;;;;;;;5035490;28;20179;-77
2022/11/18 02:29:43;;;;;;;9.40;3.60;;;;;;;;;;5061923;28;20186;-77
2022/11/18 02:32:13;;;;;;;10.60;3.70;;;;;;;;;;5044182;28;20191;-76
2022/11/18 02:34:48;;;;;;;8.70;3.87;;;;;;;;;;5039169;28;20192;-77
2022/11/18 02:37:17;;;;;;;9.57;3.73;;;;;;;;;;5041332;28;20219;-80
2022/11/18 02:39:57;;;;;;;9.47;4.00;;;;;;;;;;5059296;28;20195;-86
2022/11/18 02:42:24;;;;;;;6.33;3.50;;;;;;;;;;5076644;28;20210;-86
2022/11/18 02:44:52;;;;;;;6.17;3.47;;;;;;;;;;5059269;28;20180;-86
2022/11/18 02:47:20;;;;;;;7.23;3.70;;;;;;;;;;5076799;28;20175;-86
2022/11/18 02:49:49;;;;;;;6.47;3.63;;;;;;;;;;5058964;28;20179;-86
2022/11/18 02:52:16;;;;;;;6.13;3.80;;;;;;;;;;5059365;28;20191;-86
2022/11/18 02:54:44;;;;;;;7.97;3.70;;;;;;;;;;5059004;28;20187;-85
2022/11/18 02:57:10;;;;;;;10.53;3.63;;;;;;;;;;5058918;28;20183;-86
2022/11/18 02:59:36;;;;;;;6.97;4.00;;;;;;;;;;5076521;28;20183;-86
2022/11/18 03:02:03;;;;;;;8.33;3.83;;;;;;;;;;5042154;28;20211;-86
2022/11/18 03:04:30;;;;;;;7.27;3.70;;;;;;;;;;5058724;28;20177;-86
2022/11/18 03:07:01;;;;;;;5.53;3.80;;;;;;;;;;5076496;28;20167;-86
2022/11/18 03:09:30;;;;;;;9.63;3.70;;;;;;;;;;5058664;28;20172;-87
2022/11/18 03:12:18;;;;;;;6.60;3.63;;;;;;;;;;5055325;28;20176;-79
2022/11/18 03:14:47;;;;;;;7.90;3.67;;;;;;;;;;5075319;28;20193;-79
2022/11/18 03:17:19;;;;;;;9.20;3.90;;;;;;;;;;5074330;28;20215;-80
2022/11/18 03:19:51;;;;;;;10.73;4.10;;;;;;;;;;5056478;28;20180;-80
2022/11/18 03:22:23;;;;;;;5.00;3.23;;;;;;;;;;5062174;28;20202;-80
2022/11/18 03:25:12;;;;;;;9.30;3.87;;;;;;;;;;5076188;28;20182;-80
2022/11/18 03:27:45;;;;;;;6.77;4.10;;;;;;;;;;4995182;28;20186;-80
2022/11/18 03:30:14;;;;;;;8.77;3.67;;;;;;;;;;5054440;28;20233;-78
2022/11/18 03:32:42;;;;;;;8.70;4.13;;;;;;;;;;5058225;28;20218;-78
2022/11/18 03:35:14;;;;;;;11.93;4.83;;;;;;;;;;5075808;28;20230;-78
2022/11/18 03:37:41;;;;;;;8.43;5.30;;;;;;;;;;5058019;28;20179;-78
2022/11/18 03:40:40;;;;;;;12.00;5.03;;;;;;;;;;5058317;28;20175;-78
2022/11/18 03:43:09;;;;;;;7.10;4.70;;;;;;;;;;5003639;28;20261;-78
2022/11/18 03:45:38;;;;;;;9.73;5.13;;;;;;;;;;5057922;28;20241;-78
2022/11/18 03:48:09;;;;;;;7.47;4.60;;;;;;;;;;5075723;28;20183;-78
2022/11/18 03:50:37;;;;;;;10.13;5.23;;;;;;;;;;5075638;28;20179;-79
2022/11/18 03:53:05;;;;;;;11.60;5.00;;;;;;;;;;5057942;28;20179;-78
2022/11/18 03:55:34;;;;;;;11.23;4.77;;;;;;;;;;5057032;28;20183;-79
2022/11/18 03:58:04;;;;;;;7.60;4.53;;;;;;;;;;5075525;28;20266;-79
2022/11/18 04:00:33;;;;;;;10.20;4.90;;;;;;;;;;5057594;28;20183;-78
2022/11/18 04:02:59;;;;;;;9.83;4.90;;;;;;;;;;5075092;28;20203;-77
2022/11/18 04:05:26;;;;;;;8.60;4.73;;;;;;;;;;5041145;28;20262;-77
2022/11/18 04:07:55;;;;;;;10.23;4.67;;;;;;;;;;5048936;28;20242;-77
2022/11/18 04:10:40;;;;;;;9.43;4.63;;;;;;;;;;5037968;28;20176;-77
2022/11/18 04:13:07;;;;;;;8.83;4.60;;;;;;;;;;5051783;28;20242;-77
2022/11/18 04:15:36;;;;;;;9.60;5.20;;;;;;;;;;5066203;28;21438;-77
2022/11/18 04:18:04;;;;;;;9.97;4.67;;;;;;;;;;5057118;28;20200;-78
2022/11/18 04:20:32;;;;;;;10.87;4.87;;;;;;;;;;5050962;28;20183;-79
2022/11/18 04:22:58;;;;;;;9.23;5.07;;;;;;;;;;5026573;28;20218;-79
2022/11/18 04:25:24;;;;;;;7.50;4.50;;;;;;;;;;5040665;28;20183;-79
2022/11/18 04:27:50;;;;;;;9.07;4.80;;;;;;;;;;5036669;28;20184;-78
2022/11/18 04:30:16;;;;;;;8.83;4.67;;;;;;;;;;5037398;28;20184;-79
2022/11/18 04:32:42;;;;;;;11.27;4.93;;;;;;;;;;5036915;28;20183;-79
2022/11/18 04:35:08;;;;;;;10.13;5.00;;;;;;;;;;5054839;28;20271;-80
2022/11/18 04:37:34;;;;;;;12.87;4.67;;;;;;;;;;5057368;28;20187;-87
2022/11/18 04:40:01;;;;;;;9.60;4.90;;;;;;;;;;5074750;28;20202;-87
2022/11/18 04:42:27;;;;;;;6.93;4.50;;;;;;;;;;5074719;28;20203;-86
2022/11/18 04:44:53;;;;;;;9.10;5.00;;;;;;;;;;5056862;28;20265;-86
2022/11/18 04:47:19;;;;;;;9.97;4.50;;;;;;;;;;5057062;28;20202;-85
2022/11/18 04:49:45;;;;;;;9.67;4.57;;;;;;;;;;5057080;28;20192;-86
2022/11/18 04:52:11;;;;;;;11.50;4.63;;;;;;;;;;5056743;28;20242;-86
2022/11/18 04:54:37;;;;;;;13.87;4.87;;;;;;;;;;5056786;28;20190;-87
2022/11/18 04:57:03;;;;;;;8.70;4.70;;;;;;;;;;5074558;28;20210;-86
2022/11/18 04:59:29;;;;;;;8.43;4.70;;;;;;;;;;5057026;28;20181;-86
2022/11/18 05:01:56;;;;;;;8.40;5.00;;;;;;;;;;5036511;28;20219;-86
2022/11/18 05:04:23;;;;;;;10.17;4.60;;;;;;;;;;5051430;28;20191;-87
2022/11/18 05:06:50;;;;;;;8.67;4.60;;;;;;;;;;5074425;28;20183;-86
2022/11/18 05:09:16;;;;;;;12.93;5.37;;;;;;;;;;5056587;28;20249;-86
2022/11/18 05:14:27;;;;;;;9.90;5.77;;;;;;;;;;5059505;28;20190;-85
2022/11/18 05:16:54;;;;;;;15.63;6.50;;;;;;;;;;5056032;28;20167;-85
2022/11/18 05:19:20;;;;;;;12.43;6.67;;;;;;;;;;5074133;28;20262;-86
2022/11/18 05:21:46;;;;;;;14.97;6.70;;;;;;;;;;5056464;28;20242;-85
2022/11/18 05:24:12;;;;;;;13.03;6.80;;;;;;;;;;5040050;28;20175;-86
2022/11/18 05:26:38;;;;;;;16.13;6.87;;;;;;;;;;5027845;22;20240;-76
2022/11/18 05:29:04;;;;;;;11.47;7.03;;;;;;;;;;5015393;28;20193;-76
2022/11/18 05:31:31;;;;;;;16.60;7.63;;;;;;;;;;5015225;28;20220;-78
2022/11/18 05:33:57;;;;;;;16.07;7.23;;;;;;;;;;4991673;28;20185;-78
2022/11/18 05:36:23;;;;;;;13.83;7.40;;;;;;;;;;5000648;28;20211;-78
2022/11/18 05:38:49;;;;;;;16.87;7.23;;;;;;;;;;5033565;28;20200;-78
2022/11/18 05:44:01;;;;;;;14.43;7.23;;;;;;;;;;5019714;28;20252;-78
2022/11/18 05:46:28;;;;;;;13.33;7.40;;;;;;;;;;5000494;28;20177;-77
2022/11/18 05:48:54;;;;;;;13.57;6.70;;;;;;;;;;5016144;28;20176;-78
2022/11/18 05:51:20;;;;;;;15.30;7.13;;;;;;;;;;5016223;28;20207;-78
2022/11/18 05:53:48;;;;;;;9.37;6.53;;;;;;;;;;5033394;28;20208;-78
2022/11/18 05:56:20;;;;;;;14.93;6.90;;;;;;;;;;5032177;28;20193;-78
2022/11/18 05:58:46;;;;;;;16.03;7.33;;;;;;;;;;5016173;28;20203;-86
2022/11/18 06:01:13;;;;;;;12.67;7.50;;;;;;;;;;4999709;28;20299;-85
2022/11/18 06:03:40;;;;;;;13.60;8.10;;;;;;;;;;5016233;28;20181;-86
2022/11/18 06:06:07;;;;;;;16.63;7.67;;;;;;;;;;4999960;28;20208;-86
2022/11/18 06:08:36;;;;;;;13.87;7.10;;;;;;;;;;5016936;28;20181;-80
2022/11/18 06:11:02;;;;;;;11.60;7.13;;;;;;;;;;5019604;28;20176;-79
2022/11/18 06:13:34;;;;;;;17.13;7.17;;;;;;;;;;5018512;28;20192;-80
2022/11/18 06:16:00;;;;;;;11.10;7.17;;;;;;;;;;5017373;28;20181;-80
2022/11/18 06:18:27;;;;;;;9.87;6.63;;;;;;;;;;5024216;28;20173;-80
2022/11/18 06:20:55;;;;;;;10.47;6.90;;;;;;;;;;5012920;28;20204;-80
2022/11/18 06:23:21;;;;;;;12.07;7.00;;;;;;;;;;5033927;28;20184;-80
2022/11/18 06:25:48;;;;;;;13.53;7.13;;;;;;;;;;5018226;28;20267;-80
2022/11/18 06:28:15;;;;;;;12.07;7.10;;;;;;;;;;4993990;28;20193;-80
2022/11/18 06:30:41;;;;;;;14.70;9.18;;;;;;;;;;5026256;28;20461;-79
2022/11/18 06:33:08;;;;;;;11.40;6.93;;;;;;;;;;5014924;28;20172;-79
2022/11/18 06:35:34;;;;;;;13.23;7.00;;;;;;;;;;5016816;28;20197;-79
2022/11/18 06:38:00;;;;;;;17.00;7.30;;;;;;;;;;5016788;28;20268;-79
2022/11/18 06:40:26;;;;;;;17.10;7.10;;;;;;;;;;5016977;28;20211;-79
2022/11/18 06:45:36;;;;;;;9.60;6.10;;;;;;;;;;5017114;28;20187;-79
2022/11/18 06:48:03;;;;;;;9.13;6.67;;;;;;;;;;5016842;28;20177;-78
2022/11/18 06:50:29;;;;;;;12.50;6.67;;;;;;;;;;5016829;28;20177;-78
2022/11/18 06:52:55;;;;;;;9.93;6.40;;;;;;;;;;4999388;28;20181;-78
2022/11/18 06:55:22;;;;;;;9.20;6.00;;;;;;;;;;5016657;28;20174;-78
2022/11/18 06:57:47;;;;;;;11.90;6.97;;;;;;;;;;4999164;28;20185;-79
2022/11/18 07:00:14;;;;;;;15.73;7.20;;;;;;;;;;4999024;28;20335;-78
2022/11/18 07:02:40;;;;;;;12.87;7.10;;;;;;;;;;4999209;28;20286;-80
2022/11/18 07:05:06;;;;;;;14.80;6.40;;;;;;;;;;5016655;28;20173;-80
2022/11/18 07:07:34;;;;;;;11.43;6.73;;;;;;;;;;5016580;28;20182;-80
2022/11/18 07:10:00;;;;;;;14.03;7.43;;;;;;;;;;5015230;28;20170;-80
2022/11/18 07:12:26;;;;;;;10.97;7.03;;;;;;;;;;4999146;28;20177;-80
2022/11/18 07:14:52;;;;;;;16.77;7.30;;;;;;;;;;5015352;28;20211;-80
2022/11/18 07:17:18;;;;;;;15.70;7.10;;;;;;;;;;5015322;28;20177;-78
2022/11/18 07:19:44;;;;;;;12.70;6.67;;;;;;;;;;4998994;28;20189;-79
2022/11/18 07:22:10;;;;;;;11.00;6.80;;;;;;;;;;5015077;28;20213;-78
2022/11/18 07:24:36;;;;;;;13.70;7.00;;;;;;;;;;5016185;28;20192;-79
2022/11/18 07:27:03;;;;;;;10.70;6.87;;;;;;;;;;5014864;28;20350;-78
2022/11/18 07:29:29;;;;;;;12.67;7.43;;;;;;;;;;4998913;28;20249;-80
2022/11/18 07:31:55;;;;;;;11.53;7.10;;;;;;;;;;4999001;28;20212;-80
2022/11/18 07:34:21;;;;;;;13.27;6.80;;;;;;;;;;5015045;28;20268;-80
2022/11/18 07:36:47;;;;;;;15.37;6.90;;;;;;;;;;5014784;28;20323;-80
2022/11/18 07:39:13;;;;;;;8.73;5.38;;;;;;;;;;5014471;28;20425;-86
2022/11/18 07:41:40;;;;;;;10.10;7.03;;;;;;;;;;4998626;28;20213;-86
2022/11/18 07:44:06;;;;;;;11.63;7.00;;;;;;;;;;5015092;28;20174;-86
2022/11/18 07:46:38;;;;;;;12.53;7.17;;;;;;;;;;5018903;28;20173;-86
2022/11/18 07:49:05;;;;;;;15.93;7.27;;;;;;;;;;5018127;28;20248;-86
2022/11/18 07:51:33;;;;;;;12.77;7.03;;;;;;;;;;5018216;28;20180;-85
2022/11/18 07:53:59;;;;;;;11.13;6.03;;;;;;;;;;5035648;28;20187;-86
2022/11/18 07:56:26;;;;;;;15.47;6.57;;;;;;;;;;5018481;28;20172;-78
2022/11/18 07:58:53;;;;;;;12.13;6.77;;;;;;;;;;5017954;28;20272;-78
2022/11/18 08:01:20;;;;;;;11.50;6.50;;;;;;;;;;5017418;28;20200;-78
2022/11/18 08:03:46;;;;;;;13.37;6.60;;;;;;;;;;5017160;28;20184;-78
2022/11/18 08:06:13;;;;;;;13.70;6.47;;;;;;;;;;5017791;28;20177;-78
2022/11/18 08:08:39;;;;;;;13.10;6.50;;;;;;;;;;5019699;28;20177;-78
2022/11/18 08:11:07;;;;;;;12.53;6.00;;;;;;;;;;5024983;28;20189;-78
2022/11/18 08:13:33;;;;;;;11.20;5.90;;;;;;;;;;5015752;28;20197;-76
2022/11/18 08:16:00;;;;;;;7.37;5.60;;;;;;;;;;4998564;28;20260;-85
2022/11/18 08:18:27;;;;;;;13.23;6.30;;;;;;;;;;4997921;28;20200;-85
2022/11/18 08:20:53;;;;;;;9.63;5.83;;;;;;;;;;4998325;28;20208;-85
2022/11/18 08:23:19;;;;;;;10.87;6.20;;;;;;;;;;4998090;28;20213;-85
2022/11/18 08:25:46;;;;;;;10.63;6.03;;;;;;;;;;4997767;28;20181;-86
2022/11/18 08:28:13;;;;;;;9.30;5.63;;;;;;;;;;4997860;28;20192;-78
2022/11/18 08:30:39;;;;;;;12.13;5.80;;;;;;;;;;4997484;28;20186;-78
2022/11/18 08:33:05;;;;;;;7.73;5.27;;;;;;;;;;4998094;28;20209;-78
2022/11/18 08:35:32;;;;;;;6.73;4.93;;;;;;;;;;4997785;28;20181;-78
2022/11/18 08:37:59;;;;;;;9.43;4.87;;;;;;;;;;4997963;28;20243;-79
2022/11/18 08:40:25;;;;;;;9.97;4.73;;;;;;;;;;4997983;28;20181;-78
2022/11/18 08:42:51;;;;;;;6.37;4.30;;;;;;;;;;5015594;28;20211;-79
2022/11/18 08:45:17;;;;;;;5.87;4.23;;;;;;;;;;4998095;28;20178;-77
2022/11/18 08:47:43;;;;;;;6.67;3.90;;;;;;;;;;4997587;28;20188;-77
2022/11/18 08:50:10;;;;;;;6.90;3.83;;;;;;;;;;4997591;28;20284;-77
2022/11/18 08:52:36;;;;;;;5.33;3.20;;;;;;;;;;4997302;28;20177;-77
2022/11/18 08:55:03;;;;;;;5.17;3.10;;;;;;;;;;4997400;28;20212;-77
2022/11/18 08:57:29;;;;;;;6.03;3.17;;;;;;;;;;4997509;28;20188;-77
2022/11/18 08:59:55;;;;;;;8.83;3.43;;;;;;;;;;4997444;28;20185;-77
2022/11/18 09:02:22;;;;;;;5.27;3.30;;;;;;;;;;4997317;28;20212;-79
2022/11/18 09:04:51;;;;;;;4.10;3.10;;;;;;;;;;4997548;28;20181;-79
2022/11/18 09:07:18;;;;;;;6.67;3.20;;;;;;;;;;4997169;28;20185;-79
2022/11/18 09:09:44;;;;;;;5.37;3.07;;;;;;;;;;4997404;28;20309;-79
2022/11/18 09:12:13;;;;;;;5.73;3.00;;;;;;;;;;4997246;28;20247;-79
2022/11/18 09:14:41;;;;;;;6.40;3.37;;;;;;;;;;4997002;28;20197;-79
2022/11/18 09:17:07;;;;;;;6.93;3.00;;;;;;;;;;5014843;28;20199;-79
2022/11/18 09:19:33;;;;;;;5.30;2.70;;;;;;;;;;5013391;28;20272;-80
2022/11/18 09:21:59;;;;;;;5.83;3.27;;;;;;;;;;5023997;28;20213;-80
2022/11/18 09:24:25;;;;;;;4.27;2.90;;;;;;;;;;5019114;28;20203;-80
2022/11/18 09:26:52;;;;;;;8.20;2.83;;;;;;;;;;5014415;28;20217;-80
2022/11/18 09:29:21;;;;;;;7.07;3.00;;;;;;;;;;4997548;28;20174;-80
2022/11/18 09:31:47;;;;;;;5.33;2.90;;;;;;;;;;5013559;28;20303;-80
2022/11/18 09:34:13;;;;;;;3.63;2.80;;;;;;;;;;5014530;28;20181;-80
2022/11/18 09:36:39;;;;;;;5.03;3.10;;;;;;;;;;4997416;28;20185;-79
2022/11/18 09:39:05;;;;;;;5.30;2.87;;;;;;;;;;5014377;28;20200;-79
2022/11/18 09:41:45;;;;;;;6.70;3.10;;;;;;;;;;5016247;28;20201;-79
2022/11/18 09:44:17;;;;;;;6.63;3.40;;;;;;;;;;5044718;28;20212;-79
2022/11/18 09:47:01;;;;;;;5.13;2.60;;;;;;;;;;5023770;28;20199;-79
2022/11/18 09:49:30;;;;;;;5.77;3.00;;;;;;;;;;5018140;28;20186;-79
2022/11/18 09:51:57;;;;;;;7.33;3.10;;;;;;;;;;5018790;28;20180;-87
2022/11/18 09:54:24;;;;;;;5.37;3.07;;;;;;;;;;5036541;28;20185;-87
2022/11/18 09:56:51;;;;;;;5.30;3.13;;;;;;;;;;5043615;28;20213;-87
2022/11/18 09:59:18;;;;;;;6.40;3.13;;;;;;;;;;5044719;28;20180;-81
2022/11/18 10:01:44;;;;;;;6.23;3.10;;;;;;;;;;5038132;28;20215;-82
2022/11/18 10:04:18;;;;;;;5.20;3.03;;;;;;;;;;5053276;28;20263;-81
2022/11/18 10:06:45;;;;;;;5.93;3.20;;;;;;;;;;5053483;28;20196;-80
2022/11/18 10:09:17;;;;;;;5.67;3.37;;;;;;;;;;5036958;28;20193;-80
2022/11/18 10:11:49;;;;;;;5.37;3.50;;;;;;;;;;5044853;28;20192;-80
2022/11/18 10:14:15;;;;;;;6.87;3.73;;;;;;;;;;5032238;28;20191;-81
2022/11/18 10:16:57;;;;;;;8.27;3.77;;;;;;;;;;5019704;28;20278;-81
2022/11/18 10:19:26;;;;;;;7.43;3.73;;;;;;;;;;5037334;28;20267;-80
2022/11/18 10:21:55;;;;;;;5.97;3.40;;;;;;;;;;5037167;28;20200;-80
2022/11/18 10:24:26;;;;;;;5.13;3.87;;;;;;;;;;5037482;28;20177;-81
2022/11/18 10:26:56;;;;;;;8.77;4.47;;;;;;;;;;5019724;28;20267;-76
2022/11/18 10:29:22;;;;;;;7.67;4.00;;;;;;;;;;5018519;28;20208;-76
2022/11/18 10:32:08;;;;;;;6.50;3.87;;;;;;;;;;5037380;28;20267;-76
2022/11/18 10:34:35;;;;;;;7.77;4.77;;;;;;;;;;5019710;28;20212;-76
2022/11/18 10:37:06;;;;;;;8.57;4.23;;;;;;;;;;5019585;28;20181;-76
2022/11/18 10:39:32;;;;;;;8.40;4.23;;;;;;;;;;5019382;28;20212;-76
2022/11/18 10:42:01;;;;;;;9.37;4.13;;;;;;;;;;5019404;28;20210;-75
2022/11/18 10:44:35;;;;;;;9.53;4.13;;;;;;;;;;5019447;28;20231;-75
2022/11/18 10:47:22;;;;;;;7.53;4.37;;;;;;;;;;5035953;28;20203;-76
2022/11/18 10:49:49;;;;;;;6.10;3.90;;;;;;;;;;5015932;28;20181;-75
2022/11/18 10:52:15;;;;;;;7.63;3.90;;;;;;;;;;4999012;28;20240;-75
2022/11/18 10:54:41;;;;;;;7.80;4.00;;;;;;;;;;4999524;28;20189;-75
2022/11/18 10:57:10;;;;;;;9.17;3.87;;;;;;;;;;4999931;28;20307;-75
2022/11/18 10:59:40;;;;;;;6.50;3.50;;;;;;;;;;5001038;28;20185;-78
2022/11/18 11:02:17;;;;;;;9.03;3.90;;;;;;;;;;4999513;28;20232;-78
2022/11/18 11:04:45;;;;;;;6.40;3.90;;;;;;;;;;4999258;28;20305;-78
2022/11/18 11:07:15;;;;;;;6.60;3.60;;;;;;;;;;4999712;28;20177;-78
2022/11/18 11:09:41;;;;;;;6.93;3.90;;;;;;;;;;4999234;28;20178;-76
2022/11/18 11:12:15;;;;;;;9.50;4.23;;;;;;;;;;5016775;28;20188;-76
2022/11/18 11:14:55;;;;;;;6.07;3.77;;;;;;;;;;5016618;28;20178;-76
2022/11/18 11:17:33;;;;;;;7.10;4.20;;;;;;;;;;5025170;28;20172;-76
2022/11/18 11:20:17;;;;;;;8.33;4.13;;;;;;;;;;5035570;28;20189;-76
2022/11/18 11:22:44;;;;;;;8.87;4.00;;;;;;;;;;5035929;28;20208;-76
2022/11/18 11:25:23;;;;;;;8.93;4.63;;;;;;;;;;5018748;28;20181;-80
2022/11/18 11:27:49;;;;;;;5.00;4.47;;;;;;;;;;5036242;28;20240;-80
2022/11/18 11:30:19;;;;;;;9.67;4.63;;;;;;;;;;5018526;28;20218;-80
2022/11/18 11:33:00;;;;;;;11.43;5.10;;;;;;;;;;5017479;28;20196;-78
2022/11/18 11:35:26;;;;;;;7.10;4.90;;;;;;;;;;5036486;28;20280;-78
2022/11/18 11:38:19;;;;;;;10.30;4.90;;;;;;;;;;5018358;28;20212;-78
2022/11/18 11:40:52;;;;;;;7.23;5.00;;;;;;;;;;5033293;28;20188;-78
2022/11/18 11:43:21;;;;;;;11.43;5.67;;;;;;;;;;5018396;28;20208;-78
2022/11/18 11:45:47;;;;;;;9.87;5.27;;;;;;;;;;5018472;28;20280;-78
2022/11/18 11:48:20;;;;;;;11.00;4.97;;;;;;;;;;5036022;28;20369;-87
2022/11/18 11:50:52;;;;;;;7.53;5.23;;;;;;;;;;5018284;28;20185;-86
2022/11/18 11:53:37;;;;;;;7.63;5.23;;;;;;;;;;5017827;28;20271;-86
2022/11/18 11:56:06;;;;;;;9.90;5.10;;;;;;;;;;5017641;28;20292;-87
2022/11/18 11:58:32;;;;;;;8.70;5.70;;;;;;;;;;5018087;28;20267;-87
2022/11/18 12:01:08;;;;;;;8.90;5.47;;;;;;;;;;5018095;28;20213;-87
2022/11/18 12:03:34;;;;;;;9.43;5.50;;;;;;;;;;5017755;28;20219;-87
2022/11/18 12:06:00;;;;;;;9.13;5.17;;;;;;;;;;5017363;28;20193;-80
2022/11/18 12:08:31;;;;;;;7.80;5.40;;;;;;;;;;5017821;28;20180;-80
2022/11/18 12:11:06;;;;;;;10.90;5.30;;;;;;;;;;5035692;28;20176;-80
2022/11/18 12:13:37;;;;;;;11.37;5.80;;;;;;;;;;5035622;28;20188;-80
2022/11/18 12:16:09;;;;;;;11.83;5.80;;;;;;;;;;5014420;28;20192;-80
2022/11/18 12:18:38;;;;;;;9.17;5.20;;;;;;;;;;5027335;28;20188;-80
2022/11/18 12:21:04;;;;;;;11.20;5.13;;;;;;;;;;5016931;28;20191;-80
2022/11/18 12:23:30;;;;;;;11.43;5.80;;;;;;;;;;5017919;28;20208;-76
2022/11/18 12:25:57;;;;;;;11.77;5.50;;;;;;;;;;5017498;28;20329;-76
2022/11/18 12:28:22;;;;;;;11.77;5.27;;;;;;;;;;5017551;28;20232;-76
2022/11/18 12:30:49;;;;;;;17.27;5.70;;;;;;;;;;5018457;28;20179;-76
2022/11/18 12:33:16;;;;;;;8.77;5.63;;;;;;;;;;5016242;28;20180;-75
2022/11/18 12:35:46;;;;;;;9.73;5.33;;;;;;;;;;4997839;28;20185;-76
2022/11/18 12:38:28;;;;;;;9.80;5.67;;;;;;;;;;4997684;28;20225;-77
2022/11/18 12:40:54;;;;;;;7.90;5.50;;;;;;;;;;4997625;28;20185;-78
2022/11/18 12:46:33;;;;;;;10.07;5.23;;;;;;;;;;5015253;28;20180;-77
2022/11/18 12:49:18;;;;;;;7.90;5.70;;;;;;;;;;5014923;28;20178;-78
2022/11/18 12:51:45;;;;;;;13.23;5.93;;;;;;;;;;4997458;28;20185;-78
2022/11/18 12:54:22;;;;;;;9.47;6.13;;;;;;;;;;4997998;28;20335;-78
2022/11/18 12:56:49;;;;;;;11.90;5.50;;;;;;;;;;5014811;28;20180;-76
2022/11/18 12:59:15;;;;;;;9.57;5.30;;;;;;;;;;4997563;28;20193;-76
2022/11/18 13:01:41;;;;;;;8.03;5.07;;;;;;;;;;4997401;28;20204;-76
2022/11/18 13:04:08;;;;;;;11.43;5.57;;;;;;;;;;4997472;28;20240;-76
2022/11/18 13:06:37;;;;;;;11.10;5.30;;;;;;;;;;4997758;28;20185;-76
2022/11/18 13:09:17;;;;;;;11.23;5.73;;;;;;;;;;4997465;28;20177;-76
2022/11/18 13:11:50;;;;;;;11.70;5.27;;;;;;;;;;4997173;28;20189;-78
2022/11/18 13:20:29;;;;;;;13.33;5.53;;;;;;;;;;5030148;28;20212;-77
2022/11/18 13:25:44;;;;;;;11.77;5.80;;;;;;;;;;5033225;28;20309;-78
2022/11/18 13:28:29;;;;;;;11.37;5.50;;;;;;;;;;5016300;28;20220;-80
2022/11/18 13:31:01;;;;;;;9.17;5.50;;;;;;;;;;5016932;28;20176;-80
2022/11/18 13:33:27;;;;;;;11.10;5.57;;;;;;;;;;5016612;28;20177;-80
2022/11/18 13:35:53;;;;;;;11.90;5.80;;;;;;;;;;5016486;28;20191;-80
2022/11/18 13:38:24;;;;;;;11.80;5.90;;;;;;;;;;5016602;28;20188;-80
2022/11/18 13:41:03;;;;;;;9.03;5.37;;;;;;;;;;5016628;28;20204;-80
2022/11/18 13:43:43;;;;;;;11.83;5.47;;;;;;;;;;5096438;27;1630349;-79
2022/11/18 13:46:12;;;;;;;7.57;5.20;;;;;;;;;;5114504;28;20185;-78
2022/11/18 13:48:40;;;;;;;14.17;5.70;;;;;;;;;;5132365;28;20177;-78
2022/11/18 13:51:06;;;;;;;13.00;6.07;;;;;;;;;;5131617;28;20297;-78
2022/11/18 13:53:37;;;;;;;10.10;5.93;;;;;;;;;;5114558;28;20173;-78
2022/11/18 13:56:05;;;;;;;8.10;5.67;;;;;;;;;;5132398;28;20170;-77
2022/11/18 13:58:31;;;;;;;11.17;5.87;;;;;;;;;;5131351;28;20177;-78
2022/11/18 14:00:59;;;;;;;12.93;5.63;;;;;;;;;;5132661;28;20165;-86
2022/11/18 14:03:34;;;;;;;11.87;6.00;;;;;;;;;;5131173;28;20201;-76
2022/11/18 14:06:04;;;;;;;11.30;5.60;;;;;;;;;;5131012;28;20173;-76
2022/11/18 14:08:37;;;;;;;12.50;5.43;;;;;;;;;;5130742;28;20177;-76
2022/11/18 14:11:04;;;;;;;8.53;5.10;;;;;;;;;;5131919;28;20201;-76
2022/11/18 14:13:35;;;;;;;9.27;5.40;;;;;;;;;;5130275;28;20173;-76
2022/11/18 14:16:21;;;;;;;9.97;4.90;;;;;;;;;;5110842;28;20276;-77
2022/11/18 14:18:49;;;;;;;7.70;4.53;;;;;;;;;;5103675;28;20253;-77
2022/11/18 14:21:26;;;;;;;9.97;4.90;;;;;;;;;;5111366;28;20182;-77
2022/11/18 14:23:52;;;;;;;11.97;5.20;;;;;;;;;;5117302;28;20180;-78
2022/11/18 14:26:26;;;;;;;9.67;4.50;;;;;;;;;;5130491;28;20185;-78
2022/11/18 14:28:53;;;;;;;10.90;4.47;;;;;;;;;;5131795;27;20200;-77
2022/11/18 14:31:22;;;;;;;12.77;4.80;;;;;;;;;;5130522;28;20178;-78
2022/11/18 14:34:05;;;;;;;8.53;4.30;;;;;;;;;;5130544;28;20180;-77
2022/11/18 14:36:31;;;;;;;11.57;4.63;;;;;;;;;;5111021;28;20201;-85
2022/11/18 14:38:57;;;;;;;14.00;4.70;;;;;;;;;;5109980;28;20186;-85
2022/11/18 14:44:07;;;;;;;11.53;4.03;;;;;;;;;;5110762;28;20196;-85
2022/11/18 14:46:36;;;;;;;11.60;4.50;;;;;;;;;;5111710;28;20181;-85
2022/11/18 14:49:03;;;;;;;11.33;4.77;;;;;;;;;;5113867;28;20265;-84
2022/11/18 14:51:29;;;;;;;11.93;4.80;;;;;;;;;;5113467;28;20223;-85
2022/11/18 14:53:55;;;;;;;10.27;4.70;;;;;;;;;;5085730;28;20178;-85
2022/11/18 14:56:21;;;;;;;13.67;4.53;;;;;;;;;;5096828;28;20174;-85
2022/11/18 14:58:47;;;;;;;9.80;4.60;;;;;;;;;;5096493;28;20209;-85
2022/11/18 15:01:13;;;;;;;13.53;5.40;;;;;;;;;;5079309;28;20243;-85
2022/11/18 15:03:39;;;;;;;11.37;5.40;;;;;;;;;;5079139;28;20217;-85
2022/11/18 15:06:10;;;;;;;10.70;4.87;;;;;;;;;;5079399;28;20206;-84
2022/11/18 15:08:36;;;;;;;11.23;5.00;;;;;;;;;;5096864;28;20175;-79
2022/11/18 15:11:02;;;;;;;12.63;5.07;;;;;;;;;;5040285;22;20297;-76
2022/11/18 15:13:28;;;;;;;10.73;5.30;;;;;;;;;;4995232;28;20174;-76
2022/11/18 15:15:54;;;;;;;7.90;5.43;;;;;;;;;;4990128;28;20189;-76
2022/11/18 15:18:23;;;;;;;12.93;5.43;;;;;;;;;;4995660;28;20181;-76
2022/11/18 15:20:50;;;;;;;10.60;5.60;;;;;;;;;;4995884;28;20193;-76
2022/11/18 15:23:16;;;;;;;9.07;5.50;;;;;;;;;;4995823;28;20205;-76
2022/11/18 15:25:42;;;;;;;11.33;5.60;;;;;;;;;;4995589;28;20259;-79
2022/11/18 15:28:11;;;;;;;10.73;5.57;;;;;;;;;;4995667;28;20237;-79
2022/11/18 15:30:38;;;;;;;10.77;5.90;;;;;;;;;;4995760;28;20194;-85
2022/11/18 15:33:04;;;;;;;12.43;6.00;;;;;;;;;;4995877;28;20178;-85
2022/11/18 15:35:30;;;;;;;10.50;5.60;;;;;;;;;;4995800;28;20181;-86
2022/11/18 15:37:56;;;;;;;12.70;5.43;;;;;;;;;;4996057;28;20212;-86
2022/11/18 15:40:22;;;;;;;12.10;5.50;;;;;;;;;;4995539;28;20178;-85
2022/11/18 15:42:48;;;;;;;14.30;6.78;;;;;;;;;;5011036;28;20444;-76
2022/11/18 15:45:14;;;;;;;11.10;6.50;;;;;;;;;;4994704;28;20192;-75
2022/11/18 15:47:40;;;;;;;10.63;5.33;;;;;;;;;;4995471;28;20197;-76
2022/11/18 15:50:06;;;;;;;13.30;6.73;;;;;;;;;;4991935;28;20175;-76
2022/11/18 15:52:32;;;;;;;13.90;7.20;;;;;;;;;;4975789;28;20186;-76
2022/11/18 15:54:58;;;;;;;13.03;6.33;;;;;;;;;;4976313;28;20333;-76
2022/11/18 15:57:24;;;;;;;10.50;6.63;;;;;;;;;;4990432;28;20199;-76
2022/11/18 15:59:50;;;;;;;14.43;6.73;;;;;;;;;;4995406;28;20186;-85
2022/11/18 16:02:16;;;;;;;10.70;6.93;;;;;;;;;;4995604;28;20255;-85